createdAt,value
2022-07-29T00:02:03.176Z,14.39
2022-07-29T00:04:36.667Z,14.38
2022-07-29T00:07:09.756Z,14.34
2022-07-29T00:09:51.902Z,14.35
2022-07-29T00:12:27.093Z,14.34
2022-07-29T00:15:00.098Z,14.33
2022-07-29T00:17:34.981Z,14.32
2022-07-29T00:20:09.448Z,14.29
2022-07-29T00:22:42.539Z,14.28
2022-07-29T00:25:17.266Z,14.22
2022-07-29T00:27:50.310Z,14.16
2022-07-29T00:30:24.105Z,14.15
2022-07-29T00:32:57.068Z,14.12
2022-07-29T00:35:47.375Z,14.10
2022-07-29T00:38:21.930Z,14.04
2022-07-29T00:40:56.101Z,13.97
2022-07-29T00:43:29.181Z,13.97
2022-07-29T00:46:02.295Z,13.97
2022-07-29T00:48:35.294Z,13.92
2022-07-29T00:51:11.159Z,13.91
2022-07-29T00:53:44.408Z,13.89
2022-07-29T00:56:19.265Z,13.94
2022-07-29T00:58:53.497Z,13.86
2022-07-29T01:01:26.741Z,13.83
2022-07-29T01:03:59.728Z,13.80
2022-07-29T01:06:32.787Z,13.77
2022-07-29T01:09:05.981Z,13.81
2022-07-29T01:11:41.556Z,13.78
2022-07-29T01:14:15.429Z,13.73
2022-07-29T01:16:53.582Z,13.74
2022-07-29T01:19:47.119Z,13.73
2022-07-29T01:22:43.543Z,13.72
2022-07-29T01:25:42.245Z,13.67
2022-07-29T01:28:51.251Z,13.64
2022-07-29T01:31:33.900Z,13.63
2022-07-29T01:34:18.784Z,13.65
2022-07-29T01:36:57.315Z,13.63
2022-07-29T01:39:33.665Z,13.65
2022-07-29T01:42:14.677Z,13.67
2022-07-29T01:44:56.574Z,13.69
2022-07-29T01:47:35.824Z,13.70
2022-07-29T01:50:12.532Z,13.73
2022-07-29T01:52:51.501Z,13.75
2022-07-29T01:55:29.039Z,13.75
2022-07-29T01:58:04.971Z,13.75
2022-07-29T02:00:41.131Z,13.77
2022-07-29T02:03:20.707Z,13.79
2022-07-29T02:05:55.016Z,13.80
2022-07-29T02:08:30.190Z,13.84
2022-07-29T02:11:05.561Z,13.82
2022-07-29T02:13:39.809Z,13.82
2022-07-29T02:16:15.390Z,13.88
2022-07-29T02:18:51.481Z,13.89
2022-07-29T02:21:27.053Z,13.90
2022-07-29T02:24:02.927Z,13.90
2022-07-29T02:26:36.126Z,13.91
2022-07-29T02:29:11.748Z,13.92
2022-07-29T02:31:48.293Z,13.93
2022-07-29T02:34:23.032Z,13.91
2022-07-29T02:36:57.753Z,13.88
2022-07-29T02:39:32.315Z,13.87
2022-07-29T02:42:09.162Z,13.88
2022-07-29T02:44:42.530Z,13.89
2022-07-29T02:47:20.308Z,13.90
2022-07-29T02:49:57.259Z,13.90
2022-07-29T02:52:37.021Z,13.88
2022-07-29T02:55:17.080Z,13.88
2022-07-29T02:57:56.350Z,13.84
2022-07-29T03:00:30.941Z,13.84
2022-07-29T03:03:14.317Z,13.83
2022-07-29T03:05:47.870Z,13.83
2022-07-29T03:08:20.930Z,13.83
2022-07-29T03:10:55.707Z,13.81
2022-07-29T03:13:29.749Z,13.87
2022-07-29T03:16:03.938Z,13.87
2022-07-29T03:18:39.416Z,13.83
2022-07-29T03:21:12.669Z,13.84
2022-07-29T03:23:46.326Z,13.84
2022-07-29T03:26:20.961Z,13.89
2022-07-29T03:28:59.104Z,13.91
2022-07-29T03:31:33.516Z,13.87
2022-07-29T03:34:07.958Z,13.88
2022-07-29T03:36:41.148Z,13.89
2022-07-29T03:39:19.152Z,13.96
2022-07-29T03:41:57.167Z,13.97
2022-07-29T03:44:30.993Z,14.00
2022-07-29T03:47:06.204Z,14.00
2022-07-29T03:49:42.701Z,14.02
2022-07-29T03:52:15.892Z,14.06
2022-07-29T03:54:49.871Z,14.01
2022-07-29T03:57:26.777Z,14.07
2022-07-29T04:00:07.185Z,14.06
2022-07-29T04:02:41.133Z,14.08
2022-07-29T04:05:16.351Z,14.11
2022-07-29T04:07:50.672Z,14.19
2022-07-29T04:10:30.603Z,14.16
2022-07-29T04:13:05.360Z,14.21
2022-07-29T04:15:38.286Z,14.22
2022-07-29T04:18:11.315Z,14.28
2022-07-29T04:20:45.981Z,14.28
2022-07-29T04:23:19.003Z,14.32
2022-07-29T04:25:51.831Z,14.35
2022-07-29T04:28:24.825Z,14.34
2022-07-29T04:30:57.838Z,14.34
2022-07-29T04:33:30.840Z,14.38
2022-07-29T04:36:05.889Z,14.40
2022-07-29T04:38:58.830Z,14.44
2022-07-29T04:41:32.980Z,14.45
2022-07-29T04:44:07.448Z,14.46
2022-07-29T04:46:41.863Z,14.50
2022-07-29T04:49:15.174Z,14.50
2022-07-29T04:51:49.504Z,14.55
2022-07-29T04:54:22.589Z,14.61
2022-07-29T04:56:55.516Z,14.72
2022-07-29T04:59:28.519Z,14.77
2022-07-29T05:02:01.572Z,14.80
2022-07-29T05:04:34.740Z,14.83
2022-07-29T05:07:09.017Z,14.87
2022-07-29T05:09:42.619Z,14.89
2022-07-29T05:12:15.620Z,14.90
2022-07-29T05:14:48.679Z,14.93
2022-07-29T05:17:21.856Z,14.98
2022-07-29T05:19:55.067Z,15.03
2022-07-29T05:22:29.506Z,15.06
2022-07-29T05:25:08.570Z,15.15
2022-07-29T05:27:42.013Z,15.22
2022-07-29T05:30:15.227Z,15.29
2022-07-29T05:32:48.355Z,15.38
2022-07-29T05:35:21.610Z,15.48
2022-07-29T05:37:55.887Z,15.64
2022-07-29T05:40:28.911Z,15.74
2022-07-29T05:43:01.957Z,15.89
2022-07-29T05:45:35.090Z,16.01
2022-07-29T05:48:23.014Z,16.00
2022-07-29T05:50:56.532Z,15.98
2022-07-29T05:53:30.856Z,16.02
2022-07-29T05:56:06.356Z,16.07
2022-07-29T05:58:39.242Z,16.13
2022-07-29T06:01:17.579Z,16.28
2022-07-29T06:03:51.209Z,16.47
2022-07-29T06:06:24.487Z,16.71
2022-07-29T06:08:58.627Z,16.87
2022-07-29T06:11:31.715Z,16.94
2022-07-29T06:14:04.895Z,16.92
2022-07-29T06:16:38.268Z,16.87
2022-07-29T06:19:11.239Z,16.98
2022-07-29T06:21:44.554Z,17.16
2022-07-29T06:24:19.416Z,17.34
2022-07-29T06:26:52.941Z,17.50
2022-07-29T06:29:25.837Z,17.68
2022-07-29T06:31:58.817Z,17.84
2022-07-29T06:34:31.863Z,18.04
2022-07-29T06:37:08.590Z,18.23
2022-07-29T06:40:09.941Z,18.23
2022-07-29T06:42:44.609Z,18.24
2022-07-29T06:45:21.155Z,18.41
2022-07-29T06:47:56.122Z,18.45
2022-07-29T06:50:29.009Z,18.48
2022-07-29T06:53:02.055Z,18.66
2022-07-29T06:55:37.900Z,18.72
2022-07-29T06:58:11.796Z,18.70
2022-07-29T07:00:44.620Z,18.65
2022-07-29T07:03:17.871Z,18.61
2022-07-29T07:05:51.110Z,18.67
2022-07-29T07:08:24.966Z,18.72
2022-07-29T07:10:59.221Z,18.75
2022-07-29T07:13:35.366Z,18.84
2022-07-29T07:16:10.115Z,18.89
2022-07-29T07:18:46.018Z,18.97
2022-07-29T07:21:19.660Z,19.07
2022-07-29T07:23:52.769Z,19.26
2022-07-29T07:26:27.361Z,19.22
2022-07-29T07:29:01.345Z,19.17
2022-07-29T07:31:34.424Z,19.05
2022-07-29T07:34:07.606Z,19.06
2022-07-29T07:36:41.135Z,19.09
2022-07-29T07:39:14.378Z,19.19
2022-07-29T07:41:48.964Z,19.24
2022-07-29T07:44:22.838Z,19.23
2022-07-29T07:46:56.657Z,19.27
2022-07-29T07:49:36.818Z,19.23
2022-07-29T07:52:09.711Z,19.26
2022-07-29T07:54:43.885Z,19.34
2022-07-29T07:57:18.727Z,19.33
2022-07-29T07:59:51.813Z,19.38
2022-07-29T08:02:49.564Z,19.41
2022-07-29T08:05:22.700Z,19.56
2022-07-29T08:07:55.890Z,19.68
2022-07-29T08:10:46.185Z,19.85
2022-07-29T08:13:22.469Z,19.82
2022-07-29T08:16:00.285Z,20.05
2022-07-29T08:18:33.563Z,20.33
2022-07-29T08:21:07.005Z,20.58
2022-07-29T08:23:46.439Z,20.79
2022-07-29T08:26:23.553Z,21.29
2022-07-29T08:28:58.160Z,21.54
2022-07-29T08:31:31.158Z,22.11
2022-07-29T08:34:04.511Z,23.86
2022-07-29T08:36:37.541Z,26.39
2022-07-29T08:39:14.588Z,28.19
2022-07-29T08:41:56.686Z,29.44
2022-07-29T08:44:33.464Z,30.01
2022-07-29T08:47:07.005Z,30.02
2022-07-29T08:49:40.051Z,29.99
2022-07-29T08:52:13.816Z,30.41
2022-07-29T08:54:47.875Z,30.43
2022-07-29T08:57:23.238Z,29.62
2022-07-29T09:00:06.461Z,29.29
2022-07-29T09:02:49.893Z,29.17
2022-07-29T09:05:24.208Z,30.20
2022-07-29T09:07:58.422Z,29.10
2022-07-29T09:10:32.412Z,26.95
2022-07-29T09:13:05.949Z,25.18
2022-07-29T09:15:40.296Z,24.24
2022-07-29T09:18:26.123Z,23.92
2022-07-29T09:21:23.109Z,23.74
2022-07-29T09:24:05.032Z,23.57
2022-07-29T09:26:39.621Z,23.31
2022-07-29T09:29:14.050Z,23.30
2022-07-29T09:31:50.642Z,23.26
2022-07-29T09:34:27.256Z,23.20
2022-07-29T09:37:00.556Z,23.06
2022-07-29T09:39:35.740Z,22.86
2022-07-29T09:42:08.732Z,23.00
2022-07-29T09:44:46.696Z,22.92
2022-07-29T09:47:22.741Z,22.76
2022-07-29T09:50:00.299Z,22.75
2022-07-29T09:52:33.498Z,22.96
2022-07-29T09:55:07.281Z,22.93
2022-07-29T09:57:40.221Z,22.91
2022-07-29T10:00:16.063Z,23.02
2022-07-29T10:02:50.490Z,23.09
2022-07-29T10:05:25.004Z,23.14
2022-07-29T10:07:59.425Z,23.26
2022-07-29T10:10:34.698Z,23.30
2022-07-29T10:13:15.016Z,23.42
2022-07-29T10:15:51.899Z,23.39
2022-07-29T10:18:26.443Z,23.51
2022-07-29T10:21:02.029Z,23.50
2022-07-29T10:23:46.720Z,23.62
2022-07-29T10:26:21.570Z,23.73
2022-07-29T10:28:54.483Z,23.71
2022-07-29T10:31:36.989Z,23.87
2022-07-29T10:34:18.903Z,23.80
2022-07-29T10:37:03.399Z,23.67
2022-07-29T10:39:52.010Z,23.70
2022-07-29T10:42:29.549Z,23.69
2022-07-29T10:45:08.632Z,23.59
2022-07-29T10:47:41.979Z,23.61
2022-07-29T10:50:17.202Z,23.62
2022-07-29T10:52:58.615Z,23.69
2022-07-29T10:55:37.644Z,23.69
2022-07-29T10:58:19.032Z,23.68
2022-07-29T11:00:53.605Z,23.75
2022-07-29T11:03:52.270Z,23.71
2022-07-29T11:07:04.043Z,23.67
2022-07-29T11:09:38.629Z,23.73
2022-07-29T11:12:45.127Z,23.88
2022-07-29T11:15:19.942Z,24.07
2022-07-29T11:18:06.418Z,24.05
2022-07-29T11:20:42.420Z,24.13
2022-07-29T11:23:33.509Z,24.24
2022-07-29T11:26:21.139Z,24.42
2022-07-29T11:28:59.764Z,24.57
2022-07-29T11:31:39.514Z,24.71
2022-07-29T11:34:27.804Z,24.79
2022-07-29T11:37:27.578Z,24.86
2022-07-29T11:40:26.826Z,24.84
2022-07-29T11:43:00.442Z,24.75
2022-07-29T11:45:48.131Z,24.47
2022-07-29T11:48:31.898Z,24.24
2022-07-29T11:51:14.439Z,24.20
2022-07-29T11:53:52.547Z,24.19
2022-07-29T11:56:32.272Z,24.28
2022-07-29T11:59:09.991Z,24.28
2022-07-29T12:02:06.826Z,24.51
2022-07-29T12:04:51.158Z,24.58
2022-07-29T12:07:33.785Z,24.85
2022-07-29T12:10:11.633Z,24.90
2022-07-29T12:12:54.629Z,25.03
2022-07-29T12:15:46.098Z,25.10
2022-07-29T12:18:24.260Z,25.20
2022-07-29T12:21:04.553Z,25.34
2022-07-29T12:23:38.213Z,25.49
2022-07-29T12:26:25.282Z,25.37
2022-07-29T12:28:59.919Z,25.49
2022-07-29T12:31:43.256Z,25.57
2022-07-29T12:34:18.139Z,25.86
2022-07-29T12:36:51.943Z,25.82
2022-07-29T12:39:27.476Z,25.76
2022-07-29T12:42:04.513Z,25.63
2022-07-29T12:44:50.615Z,25.67
2022-07-29T12:47:24.168Z,25.69
2022-07-29T12:50:11.007Z,25.70
2022-07-29T12:52:44.105Z,25.71
2022-07-29T12:55:17.367Z,25.67
2022-07-29T12:57:53.169Z,25.63
2022-07-29T13:00:27.491Z,25.61
2022-07-29T13:03:02.265Z,25.38
2022-07-29T13:05:48.564Z,25.28
2022-07-29T13:08:22.910Z,25.45
2022-07-29T13:10:56.175Z,25.76
2022-07-29T13:13:29.188Z,25.75
2022-07-29T13:16:09.833Z,25.84
2022-07-29T13:18:43.003Z,25.88
2022-07-29T13:21:18.893Z,25.88
2022-07-29T13:23:52.052Z,25.92
2022-07-29T13:26:25.036Z,25.94
2022-07-29T13:28:58.132Z,25.97
2022-07-29T13:31:32.420Z,25.78
2022-07-29T13:34:05.807Z,25.52
2022-07-29T13:36:41.560Z,25.43
2022-07-29T13:39:14.930Z,25.23
2022-07-29T13:41:47.821Z,25.18
2022-07-29T13:44:22.397Z,25.23
2022-07-29T13:46:56.768Z,25.11
2022-07-29T13:49:30.683Z,24.92
2022-07-29T13:52:04.239Z,24.73
2022-07-29T13:54:42.071Z,24.48
2022-07-29T13:57:16.009Z,24.34
2022-07-29T13:59:53.755Z,24.25
2022-07-29T14:02:28.501Z,24.17
2022-07-29T14:05:06.164Z,24.03
2022-07-29T14:07:41.164Z,23.94
2022-07-29T14:10:18.397Z,23.89
2022-07-29T14:12:52.836Z,23.92
2022-07-29T14:15:25.893Z,23.92
2022-07-29T14:18:05.357Z,23.97
2022-07-29T14:20:38.598Z,24.21
2022-07-29T14:23:11.447Z,24.35
2022-07-29T14:25:47.313Z,24.49
2022-07-29T14:28:24.922Z,24.47
2022-07-29T14:30:58.024Z,24.28
2022-07-29T14:33:32.249Z,24.21
2022-07-29T14:36:05.747Z,24.07
2022-07-29T14:38:39.575Z,24.00
2022-07-29T14:41:12.817Z,23.80
2022-07-29T14:43:45.679Z,23.83
2022-07-29T14:46:18.698Z,23.80
2022-07-29T14:48:53.029Z,23.77
2022-07-29T14:51:26.067Z,23.77
2022-07-29T14:54:05.703Z,23.78
2022-07-29T14:56:46.688Z,23.78
2022-07-29T14:59:20.307Z,23.82
2022-07-29T15:01:53.503Z,24.00
2022-07-29T15:04:27.811Z,24.03
2022-07-29T15:07:00.833Z,24.23
2022-07-29T15:09:40.083Z,24.36
2022-07-29T15:12:13.864Z,24.28
2022-07-29T15:14:46.892Z,24.27
2022-07-29T15:17:21.280Z,24.33
2022-07-29T15:19:55.552Z,24.36
2022-07-29T15:22:28.541Z,24.32
2022-07-29T15:25:01.478Z,24.27
2022-07-29T15:27:34.623Z,24.31
2022-07-29T15:30:08.625Z,24.21
2022-07-29T15:32:41.642Z,23.99
2022-07-29T15:35:17.904Z,23.81
2022-07-29T15:37:51.063Z,23.72
2022-07-29T15:40:23.985Z,23.60
2022-07-29T15:42:57.235Z,23.55
2022-07-29T15:45:32.539Z,23.59
2022-07-29T15:48:07.968Z,23.69
2022-07-29T15:50:42.398Z,23.66
2022-07-29T15:53:19.957Z,23.74
2022-07-29T15:55:52.894Z,23.87
2022-07-29T15:58:25.879Z,23.91
2022-07-29T16:01:03.869Z,24.03
2022-07-29T16:03:40.972Z,24.13
2022-07-29T16:06:17.598Z,24.08
2022-07-29T16:08:50.687Z,24.05
2022-07-29T16:11:23.701Z,24.04
2022-07-29T16:13:56.713Z,24.01
2022-07-29T16:16:29.819Z,24.01
2022-07-29T16:19:02.883Z,24.05
2022-07-29T16:21:37.516Z,24.04
2022-07-29T16:24:10.681Z,24.01
2022-07-29T16:26:43.872Z,23.92
2022-07-29T16:29:18.083Z,23.95
2022-07-29T16:31:51.332Z,23.86
2022-07-29T16:34:24.400Z,23.81
2022-07-29T16:36:59.063Z,23.78
2022-07-29T16:39:32.345Z,23.65
2022-07-29T16:42:05.670Z,23.57
2022-07-29T16:44:38.680Z,23.46
2022-07-29T16:47:11.987Z,23.39
2022-07-29T16:49:45.395Z,23.36
2022-07-29T16:52:20.751Z,23.30
2022-07-29T16:54:53.810Z,23.28
2022-07-29T16:57:27.795Z,23.20
2022-07-29T17:00:00.818Z,23.11
2022-07-29T17:02:33.693Z,23.06
2022-07-29T17:05:08.068Z,22.92
2022-07-29T17:07:43.444Z,22.88
2022-07-29T17:10:16.835Z,22.80
2022-07-29T17:12:49.833Z,22.72
2022-07-29T17:15:23.010Z,22.67
2022-07-29T17:17:56.702Z,22.68
2022-07-29T17:20:30.216Z,22.54
2022-07-29T17:23:04.566Z,22.54
2022-07-29T17:25:37.672Z,22.39
2022-07-29T17:28:10.515Z,22.35
2022-07-29T17:30:43.791Z,22.24
2022-07-29T17:33:16.681Z,22.17
2022-07-29T17:36:07.265Z,22.12
2022-07-29T17:38:41.615Z,22.06
2022-07-29T17:41:14.862Z,22.02
2022-07-29T17:43:47.926Z,22.08
2022-07-29T17:46:22.244Z,21.99
2022-07-29T17:48:55.763Z,21.97
2022-07-29T17:51:29.216Z,21.91
2022-07-29T17:54:03.811Z,21.88
2022-07-29T17:56:36.892Z,21.87
2022-07-29T17:59:10.251Z,21.82
2022-07-29T18:01:43.352Z,21.77
2022-07-29T18:04:20.170Z,21.77
2022-07-29T18:06:53.723Z,21.80
2022-07-29T18:09:28.320Z,21.75
2022-07-29T18:12:01.373Z,21.79
2022-07-29T18:14:35.105Z,21.79
2022-07-29T18:17:08.606Z,21.72
2022-07-29T18:19:41.693Z,21.63
2022-07-29T18:22:15.194Z,21.56
2022-07-29T18:24:49.505Z,21.56
2022-07-29T18:27:22.637Z,21.57
2022-07-29T18:29:55.872Z,21.57
2022-07-29T18:32:29.861Z,21.51
2022-07-29T18:35:05.057Z,21.46
2022-07-29T18:38:01.010Z,21.43
2022-07-29T18:40:33.253Z,21.31
2022-07-29T18:43:06.547Z,21.25
2022-07-29T18:45:39.801Z,21.23
2022-07-29T18:48:13.680Z,21.17
2022-07-29T18:50:46.808Z,21.13
2022-07-29T18:53:19.767Z,21.07
2022-07-29T18:55:58.536Z,21.08
2022-07-29T18:58:34.002Z,21.01
2022-07-29T19:01:06.882Z,20.97
2022-07-29T19:03:40.111Z,20.94
2022-07-29T19:06:13.407Z,20.89
2022-07-29T19:08:46.463Z,20.87
2022-07-29T19:11:20.785Z,20.80
2022-07-29T19:13:58.871Z,20.80
2022-07-29T19:16:31.964Z,20.72
2022-07-29T19:19:06.370Z,20.69
2022-07-29T19:21:39.417Z,20.65
2022-07-29T19:24:15.465Z,20.61
2022-07-29T19:26:50.067Z,20.54
2022-07-29T19:29:23.469Z,20.54
2022-07-29T19:32:01.442Z,20.54
2022-07-29T19:34:34.531Z,20.49
2022-07-29T19:37:07.575Z,20.46
2022-07-29T19:39:40.781Z,20.38
2022-07-29T19:42:15.079Z,20.35
2022-07-29T19:44:48.131Z,20.36
2022-07-29T19:47:21.081Z,20.37
2022-07-29T19:49:54.045Z,20.30
2022-07-29T19:52:27.192Z,20.33
2022-07-29T19:55:05.273Z,20.29
2022-07-29T19:57:42.061Z,20.20
2022-07-29T20:00:15.493Z,20.18
2022-07-29T20:02:48.530Z,20.15
2022-07-29T20:05:21.839Z,20.08
2022-07-29T20:08:01.082Z,20.08
2022-07-29T20:10:34.915Z,19.98
2022-07-29T20:13:09.164Z,19.96
2022-07-29T20:15:42.299Z,19.95
2022-07-29T20:18:15.633Z,19.93
2022-07-29T20:20:49.660Z,19.88
2022-07-29T20:23:23.214Z,19.84
2022-07-29T20:25:56.373Z,19.88
2022-07-29T20:28:31.036Z,19.80
2022-07-29T20:31:04.133Z,19.74
2022-07-29T20:33:38.748Z,19.71
2022-07-29T20:36:11.756Z,19.67
2022-07-29T20:38:44.873Z,19.65
2022-07-29T20:41:17.868Z,19.67
2022-07-29T20:43:52.747Z,19.67
2022-07-29T20:46:25.857Z,19.74
2022-07-29T20:48:58.985Z,19.68
2022-07-29T20:51:32.077Z,19.71
2022-07-29T20:54:16.795Z,19.70
2022-07-29T20:56:49.856Z,19.67
2022-07-29T20:59:24.216Z,19.61
2022-07-29T21:01:57.357Z,19.60
2022-07-29T21:04:30.688Z,19.58
2022-07-29T21:07:04.293Z,19.56
2022-07-29T21:09:37.458Z,19.55
2022-07-29T21:12:11.547Z,19.55
2022-07-29T21:14:49.284Z,19.53
2022-07-29T21:17:22.825Z,19.52
2022-07-29T21:19:55.724Z,19.53
2022-07-29T21:22:28.735Z,19.49
2022-07-29T21:25:01.786Z,19.51
2022-07-29T21:27:52.239Z,19.48
2022-07-29T21:30:26.532Z,19.45
2022-07-29T21:32:59.862Z,19.47
2022-07-29T21:36:10.267Z,19.44
2022-07-29T21:38:26.039Z,19.43
2022-07-29T21:40:58.938Z,19.43
2022-07-29T21:43:32.223Z,19.43
2022-07-29T21:46:06.686Z,19.42
2022-07-29T21:48:44.172Z,19.37
2022-07-29T21:51:17.525Z,19.35
2022-07-29T21:53:53.072Z,19.33
2022-07-29T21:56:27.799Z,19.27
2022-07-29T21:59:01.174Z,19.22
2022-07-29T22:01:39.367Z,19.17
2022-07-29T22:04:13.011Z,19.10
2022-07-29T22:06:46.028Z,19.08
2022-07-29T22:09:19.421Z,19.03
2022-07-29T22:11:52.567Z,19.05
2022-07-29T22:14:25.702Z,18.97
2022-07-29T22:17:00.345Z,18.93
2022-07-29T22:19:33.649Z,18.90
2022-07-29T22:22:06.607Z,18.86
2022-07-29T22:24:39.842Z,18.81
2022-07-29T22:27:13.182Z,18.77
2022-07-29T22:29:46.211Z,18.75
2022-07-29T22:32:20.655Z,18.72
2022-07-29T22:34:53.711Z,18.72
2022-07-29T22:37:26.738Z,18.74
2022-07-29T22:39:59.997Z,18.75
2022-07-29T22:42:33.069Z,18.81
2022-07-29T22:45:06.715Z,18.79
2022-07-29T22:47:48.146Z,18.79
2022-07-29T22:50:21.969Z,18.75
2022-07-29T22:52:54.843Z,18.72
2022-07-29T22:55:27.998Z,18.69
2022-07-29T22:58:00.979Z,18.65
2022-07-29T23:00:34.148Z,18.62
2022-07-29T23:03:08.349Z,18.60
2022-07-29T23:05:41.356Z,18.57
2022-07-29T23:08:14.555Z,18.55
2022-07-29T23:10:47.875Z,18.54
2022-07-29T23:13:20.882Z,18.49
2022-07-29T23:15:54.047Z,18.49
2022-07-29T23:18:28.442Z,18.45
2022-07-29T23:21:01.481Z,18.45
2022-07-29T23:23:34.359Z,18.43
2022-07-29T23:26:07.424Z,18.40
2022-07-29T23:28:40.323Z,18.40
2022-07-29T23:31:13.733Z,18.45
2022-07-29T23:33:48.096Z,18.43
2022-07-29T23:36:21.734Z,18.37
2022-07-29T23:38:57.359Z,18.40
2022-07-29T23:41:31.329Z,18.37
2022-07-29T23:44:04.738Z,18.41
2022-07-29T23:46:37.852Z,18.40
2022-07-29T23:49:13.456Z,18.36
2022-07-29T23:51:48.037Z,18.36
2022-07-29T23:54:20.963Z,18.35
2022-07-29T23:56:54.069Z,18.31
2022-07-29T23:59:27.109Z,18.29
